Athol, New York
Current Conditions -  °F | °C
As of 3:53 PM on Thursday 20 Nov 2014 (Local Time) from KGFL Reporting Station
Few Clouds Few Clouds  
Wind Chill: 25°   Ceiling: Unl
Heat Index: 32°   Visibility: 10mi
Dew Point: 14°   Wind: 8mph
Humidity: 47%   Direction: 260°W
Pressure: 29.83"   Gusts: 22mph
Location:  43.46°N, 73.9°W
Report Text: KGFL 202053Z AUTO 26007G19KT 230V290 10SM FEW055 00/M10 A2983 RMK AO2 SLP110 T00001100 53013
Loading
Personal Weather Stations






























Interactive Weather Map New forecast layout! Learn more

10-Day Weather Forecast

Advertisements
Track Severe Weather on mobile